createdAt,value
2023-04-26T00:00:50.295Z,66.48
2023-04-26T00:03:16.867Z,66.27
2023-04-26T00:05:43.709Z,66.24
2023-04-26T00:08:10.467Z,66.25
2023-04-26T00:10:37.161Z,67.10
2023-04-26T00:13:03.701Z,67.43
2023-04-26T00:15:30.362Z,67.42
2023-04-26T00:17:57.077Z,67.58
2023-04-26T00:20:23.983Z,66.88
2023-04-26T00:22:51.167Z,67.83
2023-04-26T00:25:17.948Z,67.15
2023-04-26T00:27:44.427Z,68.03
2023-04-26T00:30:11.458Z,69.12
2023-04-26T00:32:38.079Z,68.65
2023-04-26T00:35:04.940Z,70.10
2023-04-26T00:37:31.633Z,69.93
2023-04-26T00:39:58.029Z,70.31
2023-04-26T00:42:24.672Z,70.60
2023-04-26T00:44:55.261Z,70.22
2023-04-26T00:47:21.796Z,70.55
2023-04-26T00:49:48.264Z,71.11
2023-04-26T00:52:14.753Z,70.96
2023-04-26T00:54:41.745Z,71.01
2023-04-26T00:57:09.762Z,72.29
2023-04-26T00:59:36.537Z,72.09
2023-04-26T01:02:03.658Z,73.30
2023-04-26T01:04:31.008Z,74.08
2023-04-26T01:06:58.339Z,74.11
2023-04-26T01:09:25.360Z,74.25
2023-04-26T01:11:52.864Z,75.14
2023-04-26T01:14:20.513Z,74.80
2023-04-26T01:16:47.488Z,76.15
2023-04-26T01:19:15.433Z,75.88
2023-04-26T01:21:42.827Z,75.83
2023-04-26T01:24:11.004Z,76.62
2023-04-26T01:26:45.851Z,76.86
2023-04-26T01:29:20.918Z,76.67
2023-04-26T01:31:48.326Z,77.54
2023-04-26T01:34:15.724Z,77.08
2023-04-26T01:36:42.701Z,76.47
2023-04-26T01:39:10.332Z,76.80
2023-04-26T01:41:37.162Z,75.79
2023-04-26T01:44:04.530Z,76.22
2023-04-26T01:46:31.227Z,76.09
2023-04-26T01:48:58.066Z,75.16
2023-04-26T01:51:24.802Z,76.31
2023-04-26T01:53:51.713Z,76.65
2023-04-26T01:56:19.532Z,77.23
2023-04-26T01:58:46.245Z,76.94
2023-04-26T02:01:12.920Z,77.24
2023-04-26T02:03:39.566Z,76.13
2023-04-26T02:06:06.461Z,75.59
2023-04-26T02:08:33.540Z,76.26
2023-04-26T02:11:00.238Z,74.88
2023-04-26T02:13:27.130Z,75.42
2023-04-26T02:15:54.255Z,76.07
2023-04-26T02:18:22.201Z,75.84
2023-04-26T02:20:48.982Z,75.84
2023-04-26T02:23:15.894Z,74.93
2023-04-26T02:25:45.876Z,75.71
2023-04-26T02:28:12.556Z,75.43
2023-04-26T02:30:39.258Z,75.19
2023-04-26T02:33:06.021Z,75.02
2023-04-26T02:35:32.622Z,74.90
2023-04-26T02:37:59.164Z,75.43
2023-04-26T02:40:25.831Z,74.82
2023-04-26T02:42:52.354Z,75.24
2023-04-26T02:45:19.025Z,74.56
2023-04-26T02:47:45.885Z,75.18
2023-04-26T02:50:12.425Z,75.34
2023-04-26T02:52:38.962Z,74.87
2023-04-26T02:55:06.076Z,75.27
2023-04-26T02:57:33.173Z,75.83
2023-04-26T02:59:59.810Z,75.48
2023-04-26T03:02:26.606Z,76.83
2023-04-26T03:04:53.699Z,76.03
2023-04-26T03:07:20.276Z,76.70
2023-04-26T03:09:46.902Z,76.58
2023-04-26T03:12:13.956Z,77.01
2023-04-26T03:14:40.443Z,76.64
2023-04-26T03:17:06.865Z,77.00
2023-04-26T03:19:34.210Z,76.82
2023-04-26T03:22:00.643Z,77.28
2023-04-26T03:24:27.158Z,77.32
2023-04-26T03:26:54.126Z,78.08
2023-04-26T03:29:20.682Z,78.20
2023-04-26T03:31:47.183Z,78.35
2023-04-26T03:34:13.773Z,78.46
2023-04-26T03:36:40.214Z,79.19
2023-04-26T03:39:06.745Z,79.54
2023-04-26T03:41:37.013Z,79.87
2023-04-26T03:44:03.651Z,79.36
2023-04-26T03:46:30.620Z,79.75
2023-04-26T03:48:57.188Z,80.44
2023-04-26T03:51:23.616Z,80.25
2023-04-26T03:53:50.086Z,80.30
2023-04-26T03:56:17.086Z,80.73
2023-04-26T03:58:43.582Z,80.35
2023-04-26T04:01:10.072Z,79.40
2023-04-26T04:03:39.196Z,79.47
2023-04-26T04:06:07.956Z,79.69
2023-04-26T04:08:34.429Z,79.47
2023-04-26T04:11:01.423Z,79.33
2023-04-26T04:13:27.920Z,79.70
2023-04-26T04:15:54.535Z,79.66
2023-04-26T04:18:21.233Z,79.91
2023-04-26T04:20:47.743Z,79.26
2023-04-26T04:23:14.360Z,79.30
2023-04-26T04:25:41.092Z,78.56
2023-04-26T04:28:08.543Z,79.64
2023-04-26T04:30:35.636Z,79.72
2023-04-26T04:33:03.460Z,78.90
2023-04-26T04:35:33.825Z,79.21
2023-04-26T04:38:01.750Z,78.49
2023-04-26T04:40:28.532Z,78.40
2023-04-26T04:42:55.632Z,79.10
2023-04-26T04:45:22.255Z,79.29
2023-04-26T04:47:48.898Z,77.85
2023-04-26T04:50:15.974Z,77.21
2023-04-26T04:52:42.626Z,77.58
2023-04-26T04:55:09.918Z,78.15
2023-04-26T04:57:36.514Z,76.83
2023-04-26T05:00:10.284Z,75.79
2023-04-26T05:02:37.662Z,74.59
2023-04-26T05:05:05.288Z,75.44
2023-04-26T05:07:32.533Z,74.60
2023-04-26T05:09:59.843Z,73.44
2023-04-26T05:12:26.560Z,72.05
2023-04-26T05:14:53.275Z,69.43
2023-04-26T05:17:20.146Z,68.36
2023-04-26T05:19:47.337Z,66.52
2023-04-26T05:22:18.426Z,66.46
2023-04-26T05:24:48.263Z,63.11
2023-04-26T05:27:15.040Z,63.47
2023-04-26T05:29:42.062Z,61.93
2023-04-26T05:32:08.916Z,60.74
2023-04-26T05:34:35.536Z,58.47
2023-04-26T05:37:02.060Z,57.50
2023-04-26T05:39:28.522Z,57.58
2023-04-26T05:41:55.074Z,56.25
2023-04-26T05:44:21.764Z,56.91
2023-04-26T05:46:48.283Z,56.23
2023-04-26T05:49:14.772Z,55.84
2023-04-26T05:51:41.334Z,55.94
2023-04-26T05:54:07.831Z,55.64
2023-04-26T05:56:34.399Z,55.28
2023-04-26T05:59:00.856Z,55.37
2023-04-26T06:01:27.830Z,53.68
2023-04-26T06:03:57.965Z,55.61
2023-04-26T06:06:28.208Z,55.38
2023-04-26T06:08:55.035Z,55.04
2023-04-26T06:11:21.680Z,55.84
2023-04-26T06:13:48.290Z,55.99
2023-04-26T06:16:14.830Z,56.57
2023-04-26T06:18:41.626Z,57.70
2023-04-26T06:21:08.192Z,58.70
2023-04-26T06:23:34.764Z,57.27
2023-04-26T06:26:01.314Z,56.45
2023-04-26T06:28:27.778Z,55.05
2023-04-26T06:30:54.218Z,54.02
2023-04-26T06:33:20.797Z,53.07
2023-04-26T06:35:47.280Z,53.53
2023-04-26T06:38:13.838Z,52.23
2023-04-26T06:40:40.309Z,45.67
2023-04-26T06:43:06.835Z,43.46
2023-04-26T06:45:33.564Z,42.93
2023-04-26T06:48:01.647Z,43.08
2023-04-26T06:50:28.233Z,42.98
2023-04-26T06:52:54.633Z,43.91
2023-04-26T06:55:21.405Z,44.70
2023-04-26T06:57:49.532Z,43.64
2023-04-26T07:00:16.273Z,42.18
2023-04-26T07:02:42.915Z,39.87
2023-04-26T07:05:09.697Z,41.83
2023-04-26T07:07:36.227Z,40.71
2023-04-26T07:10:03.532Z,38.07
2023-04-26T07:12:31.276Z,40.48
2023-04-26T07:14:58.078Z,43.29
2023-04-26T07:17:24.676Z,44.91
2023-04-26T07:19:51.218Z,46.27
2023-04-26T07:22:17.894Z,45.51
2023-04-26T07:24:44.309Z,45.52
2023-04-26T07:27:11.259Z,45.26
2023-04-26T07:29:38.897Z,47.95
2023-04-26T07:32:06.026Z,49.48
2023-04-26T07:34:32.735Z,49.75
2023-04-26T07:36:59.206Z,47.42
2023-04-26T07:39:26.543Z,42.99
2023-04-26T07:41:53.047Z,39.55
2023-04-26T07:44:19.504Z,39.86
2023-04-26T07:46:46.092Z,39.18
2023-04-26T07:49:13.790Z,38.46
2023-04-26T07:51:44.375Z,38.76
2023-04-26T07:54:11.041Z,40.87
2023-04-26T07:56:37.583Z,42.71
2023-04-26T07:59:05.021Z,41.52
2023-04-26T08:01:31.425Z,41.55
2023-04-26T08:03:58.377Z,40.78
2023-04-26T08:06:25.746Z,40.92
2023-04-26T08:08:53.700Z,40.86
2023-04-26T08:11:20.375Z,42.59
2023-04-26T08:13:46.905Z,43.79
2023-04-26T08:16:14.270Z,46.00
2023-04-26T08:18:40.925Z,42.82
2023-04-26T08:21:07.719Z,41.42
2023-04-26T08:23:38.357Z,42.33
2023-04-26T08:26:05.159Z,42.09
2023-04-26T08:28:32.555Z,44.80
2023-04-26T08:30:59.100Z,48.33
2023-04-26T08:33:26.183Z,47.77
2023-04-26T08:35:52.793Z,48.18
2023-04-26T08:38:19.366Z,47.42
2023-04-26T08:40:46.736Z,39.45
2023-04-26T08:43:15.021Z,35.82
2023-04-26T08:45:44.492Z,33.21
2023-04-26T08:48:14.969Z,35.69
2023-04-26T08:50:45.539Z,39.52
2023-04-26T08:53:17.791Z,41.11
2023-04-26T08:55:51.085Z,41.83
2023-04-26T08:58:18.589Z,42.43
2023-04-26T09:00:46.142Z,41.67
2023-04-26T09:03:13.830Z,37.41
2023-04-26T09:05:43.935Z,32.92
2023-04-26T09:08:13.698Z,34.64
2023-04-26T09:10:40.270Z,37.44
2023-04-26T09:13:06.740Z,39.44
2023-04-26T09:15:33.172Z,39.94
2023-04-26T09:18:20.014Z,42.06
2023-04-26T09:21:05.043Z,41.66
2023-04-26T09:23:32.198Z,40.88
2023-04-26T09:26:21.584Z,38.21
2023-04-26T09:28:48.440Z,36.10
2023-04-26T09:31:39.152Z,32.76
2023-04-26T09:34:05.838Z,33.48
2023-04-26T09:36:32.482Z,33.00
2023-04-26T09:39:00.432Z,35.05
2023-04-26T09:41:43.378Z,37.60
2023-04-26T09:44:21.348Z,39.91
2023-04-26T09:47:05.141Z,41.44
2023-04-26T09:49:44.197Z,41.37
2023-04-26T09:52:10.793Z,39.18
2023-04-26T09:54:51.683Z,38.38
2023-04-26T09:57:19.914Z,38.81
2023-04-26T09:59:55.597Z,39.27
2023-04-26T10:02:23.996Z,39.09
2023-04-26T10:04:52.752Z,39.47
2023-04-26T10:07:21.784Z,38.76
2023-04-26T10:09:49.516Z,40.48
2023-04-26T10:12:18.293Z,42.42
2023-04-26T10:14:46.530Z,43.18
2023-04-26T10:17:13.840Z,44.11
2023-04-26T10:19:44.105Z,45.95
2023-04-26T10:22:16.460Z,44.51
2023-04-26T10:24:44.460Z,45.25
2023-04-26T10:27:11.076Z,42.44
2023-04-26T10:29:56.475Z,34.87
2023-04-26T10:32:23.990Z,31.74
2023-04-26T10:35:13.870Z,31.61
2023-04-26T10:37:59.303Z,33.40
2023-04-26T10:40:33.290Z,34.68
2023-04-26T10:43:08.926Z,36.36
2023-04-26T10:45:36.102Z,35.70
2023-04-26T10:48:17.804Z,36.93
2023-04-26T10:51:02.690Z,37.65
2023-04-26T10:53:34.233Z,37.59
2023-04-26T10:56:00.833Z,38.56
2023-04-26T10:58:28.261Z,39.05
2023-04-26T11:01:17.282Z,38.94
2023-04-26T11:04:02.218Z,38.81
2023-04-26T11:06:47.392Z,40.42
2023-04-26T11:09:37.261Z,40.33
2023-04-26T11:12:05.380Z,40.36
2023-04-26T11:14:34.224Z,39.33
2023-04-26T11:17:04.539Z,39.26
2023-04-26T11:19:31.976Z,39.28
2023-04-26T11:22:01.945Z,38.71
2023-04-26T11:24:31.254Z,39.44
2023-04-26T11:27:00.594Z,38.40
2023-04-26T11:29:27.062Z,39.90
2023-04-26T11:31:58.039Z,38.08
2023-04-26T11:34:35.173Z,37.26
2023-04-26T11:37:02.600Z,37.11
2023-04-26T11:39:29.191Z,37.26
2023-04-26T11:42:09.017Z,37.71
2023-04-26T11:44:36.492Z,38.52
2023-04-26T11:47:04.208Z,40.13
2023-04-26T11:49:36.328Z,40.90
2023-04-26T11:52:04.855Z,41.50
2023-04-26T11:54:32.908Z,40.56
2023-04-26T11:56:59.568Z,40.99
2023-04-26T11:59:27.302Z,42.45
2023-04-26T12:01:53.886Z,41.79
2023-04-26T12:04:30.148Z,40.27
2023-04-26T12:06:57.858Z,38.27
2023-04-26T12:09:25.136Z,38.58
2023-04-26T12:12:08.225Z,36.71
2023-04-26T12:14:36.571Z,36.67
2023-04-26T12:17:06.193Z,36.62
2023-04-26T12:19:33.375Z,35.11
2023-04-26T12:22:01.266Z,34.43
2023-04-26T12:24:38.687Z,34.64
2023-04-26T12:27:09.062Z,34.83
2023-04-26T12:29:35.747Z,36.12
2023-04-26T12:32:03.066Z,35.53
2023-04-26T12:34:29.819Z,36.18
2023-04-26T12:36:56.572Z,36.14
2023-04-26T12:39:23.079Z,34.72
2023-04-26T12:41:49.629Z,34.49
2023-04-26T12:44:16.311Z,36.39
2023-04-26T12:46:42.815Z,36.34
2023-04-26T12:49:09.511Z,35.23
2023-04-26T12:51:35.967Z,35.53
2023-04-26T12:54:02.983Z,35.55
2023-04-26T12:56:29.677Z,37.01
2023-04-26T12:58:56.220Z,38.42
2023-04-26T13:01:22.914Z,39.59
2023-04-26T13:03:49.669Z,39.88
2023-04-26T13:06:16.799Z,40.98
2023-04-26T13:08:43.212Z,40.58
2023-04-26T13:11:09.649Z,41.13
2023-04-26T13:13:43.928Z,39.93
2023-04-26T13:16:11.963Z,39.56
2023-04-26T13:18:39.296Z,38.97
2023-04-26T13:21:05.986Z,37.89
2023-04-26T13:23:32.488Z,37.41
2023-04-26T13:25:58.965Z,36.74
2023-04-26T13:28:25.624Z,34.04
2023-04-26T13:30:52.497Z,33.75
2023-04-26T13:33:21.453Z,34.03
2023-04-26T13:35:48.361Z,33.30
2023-04-26T13:38:15.947Z,34.16
2023-04-26T13:40:42.964Z,35.47
2023-04-26T13:43:09.786Z,36.81
2023-04-26T13:45:36.256Z,37.85
2023-04-26T13:48:02.821Z,39.39
2023-04-26T13:50:29.350Z,36.50
2023-04-26T13:52:56.702Z,35.48
2023-04-26T13:55:23.411Z,37.95
2023-04-26T13:57:49.852Z,37.98
2023-04-26T14:00:16.808Z,38.01
2023-04-26T14:02:43.674Z,37.00
2023-04-26T14:05:10.513Z,37.63
2023-04-26T14:07:37.168Z,37.94
2023-04-26T14:10:04.262Z,37.49
2023-04-26T14:12:31.063Z,36.44
2023-04-26T14:14:57.620Z,38.56
2023-04-26T14:17:25.426Z,37.73
2023-04-26T14:19:54.106Z,38.51
2023-04-26T14:22:21.399Z,38.58
2023-04-26T14:24:47.988Z,38.84
2023-04-26T14:27:14.862Z,38.62
2023-04-26T14:29:41.295Z,39.48
2023-04-26T14:32:07.916Z,38.95
2023-04-26T14:34:39.003Z,40.61
2023-04-26T14:37:06.763Z,40.57
2023-04-26T14:39:33.266Z,40.77
2023-04-26T14:41:59.816Z,39.88
2023-04-26T14:44:27.224Z,39.68
2023-04-26T14:46:53.830Z,42.09
2023-04-26T14:49:20.624Z,39.90
2023-04-26T14:51:47.349Z,38.83
2023-04-26T14:54:13.864Z,39.42
2023-04-26T14:56:40.493Z,39.67
2023-04-26T14:59:08.009Z,40.28
2023-04-26T15:01:34.551Z,38.89
2023-04-26T15:04:01.864Z,38.51
2023-04-26T15:06:29.017Z,39.66
2023-04-26T15:08:55.546Z,39.25
2023-04-26T15:11:22.053Z,38.91
2023-04-26T15:13:48.613Z,39.79
2023-04-26T15:16:15.150Z,41.61
2023-04-26T15:18:41.917Z,41.41
2023-04-26T15:21:09.182Z,40.97
2023-04-26T15:23:36.029Z,39.83
2023-04-26T15:26:03.530Z,39.96
2023-04-26T15:28:30.440Z,40.64
2023-04-26T15:31:08.836Z,40.67
2023-04-26T15:33:35.666Z,42.10
2023-04-26T15:36:02.289Z,40.36
2023-04-26T15:38:28.766Z,40.79
2023-04-26T15:40:55.416Z,41.73
2023-04-26T15:43:22.071Z,41.26
2023-04-26T15:45:49.701Z,40.48
2023-04-26T15:48:16.709Z,40.03
2023-04-26T15:50:43.152Z,40.34
2023-04-26T15:53:09.890Z,40.18
2023-04-26T15:55:36.454Z,40.15
2023-04-26T15:58:03.420Z,41.34
2023-04-26T16:00:31.689Z,40.58
2023-04-26T16:02:58.292Z,41.43
2023-04-26T16:05:24.864Z,41.93
2023-04-26T16:07:51.364Z,42.02
2023-04-26T16:10:17.881Z,41.03
2023-04-26T16:12:44.861Z,42.21
2023-04-26T16:15:11.595Z,42.36
2023-04-26T16:17:39.004Z,41.68
2023-04-26T16:20:07.009Z,42.65
2023-04-26T16:22:34.365Z,42.23
2023-04-26T16:25:01.093Z,41.99
2023-04-26T16:27:27.858Z,42.16
2023-04-26T16:29:54.505Z,42.51
2023-04-26T16:32:21.462Z,43.00
2023-04-26T16:34:48.195Z,42.28
2023-04-26T16:37:14.785Z,42.24
2023-04-26T16:39:41.345Z,42.11
2023-04-26T16:42:07.893Z,43.61
2023-04-26T16:44:34.408Z,43.42
2023-04-26T16:47:01.675Z,44.62
2023-04-26T16:49:28.354Z,44.27
2023-04-26T16:51:58.799Z,43.44
2023-04-26T16:54:26.116Z,43.82
2023-04-26T16:56:53.834Z,43.31
2023-04-26T16:59:20.745Z,43.45
2023-04-26T17:01:47.371Z,44.60
2023-04-26T17:04:14.329Z,44.14
2023-04-26T17:06:41.189Z,44.25
2023-04-26T17:09:08.705Z,45.06
2023-04-26T17:11:37.290Z,44.55
2023-04-26T17:14:04.528Z,44.85
2023-04-26T17:16:31.701Z,44.72
2023-04-26T17:18:58.612Z,45.65
2023-04-26T17:21:25.473Z,45.91
2023-04-26T17:23:52.572Z,45.84
2023-04-26T17:26:19.129Z,46.32
2023-04-26T17:28:45.833Z,46.93
2023-04-26T17:31:12.624Z,45.33
2023-04-26T17:33:39.083Z,45.77
2023-04-26T17:36:06.364Z,46.42
2023-04-26T17:38:33.388Z,46.14
2023-04-26T17:41:00.031Z,46.67
2023-04-26T17:43:27.399Z,45.85
2023-04-26T17:45:53.974Z,47.42
2023-04-26T17:48:20.596Z,47.03
2023-04-26T17:50:47.163Z,47.33
2023-04-26T17:53:13.774Z,46.69
2023-04-26T17:55:40.566Z,47.98
2023-04-26T17:58:07.003Z,47.11
2023-04-26T18:00:33.810Z,48.43
2023-04-26T18:03:02.960Z,48.44
2023-04-26T18:05:29.714Z,48.92
2023-04-26T18:07:56.596Z,48.50
2023-04-26T18:10:23.264Z,48.22
2023-04-26T18:12:49.810Z,49.14
2023-04-26T18:15:16.230Z,49.67
2023-04-26T18:17:42.844Z,49.74
2023-04-26T18:20:11.157Z,50.06
2023-04-26T18:22:37.780Z,49.21
2023-04-26T18:25:04.855Z,49.59
2023-04-26T18:27:31.777Z,50.28
2023-04-26T18:29:58.326Z,50.78
2023-04-26T18:32:24.908Z,50.52
2023-04-26T18:34:51.437Z,51.27
2023-04-26T18:37:18.280Z,50.08
2023-04-26T18:39:45.348Z,50.97
2023-04-26T18:42:11.888Z,51.17
2023-04-26T18:44:38.363Z,50.67
2023-04-26T18:47:05.704Z,51.29
2023-04-26T18:49:32.208Z,50.36
2023-04-26T18:51:58.765Z,50.86
2023-04-26T18:54:26.303Z,51.79
2023-04-26T18:56:52.834Z,51.73
2023-04-26T18:59:19.452Z,53.06
2023-04-26T19:01:45.952Z,52.68
2023-04-26T19:04:12.606Z,52.43
2023-04-26T19:06:41.368Z,52.37
2023-04-26T19:09:11.664Z,52.97
2023-04-26T19:11:38.408Z,53.61
2023-04-26T19:14:05.034Z,54.34
2023-04-26T19:16:31.948Z,52.32
2023-04-26T19:18:58.748Z,54.07
2023-04-26T19:21:25.357Z,53.43
2023-04-26T19:23:52.059Z,52.96
2023-04-26T19:26:18.621Z,54.71
2023-04-26T19:28:45.303Z,55.06
2023-04-26T19:31:11.750Z,55.53
2023-04-26T19:33:40.382Z,56.91
2023-04-26T19:36:09.003Z,56.40
2023-04-26T19:38:35.892Z,57.90
2023-04-26T19:41:02.602Z,58.41
2023-04-26T19:43:29.114Z,58.08
2023-04-26T19:45:55.626Z,58.99
2023-04-26T19:48:22.365Z,59.16
2023-04-26T19:50:48.822Z,59.11
2023-04-26T19:53:15.503Z,59.51
2023-04-26T19:55:42.437Z,59.66
2023-04-26T19:58:10.553Z,60.43
2023-04-26T20:00:38.082Z,60.92
2023-04-26T20:03:05.367Z,61.25
2023-04-26T20:05:32.242Z,61.37
2023-04-26T20:07:58.665Z,62.51
2023-04-26T20:10:25.421Z,63.14
2023-04-26T20:12:53.088Z,63.89
2023-04-26T20:15:19.593Z,63.99
2023-04-26T20:17:46.235Z,64.80
2023-04-26T20:20:13.026Z,64.13
2023-04-26T20:22:40.222Z,65.47
2023-04-26T20:25:07.705Z,65.58
2023-04-26T20:27:34.846Z,66.35
2023-04-26T20:30:01.730Z,65.69
2023-04-26T20:32:28.428Z,66.46
2023-04-26T20:34:54.906Z,67.34
2023-04-26T20:37:22.042Z,67.51
2023-04-26T20:39:49.027Z,68.22
2023-04-26T20:42:16.185Z,67.90
2023-04-26T20:44:43.141Z,69.06
2023-04-26T20:47:09.722Z,68.53
2023-04-26T20:49:36.338Z,69.33
2023-04-26T20:52:02.878Z,69.66
2023-04-26T20:54:29.501Z,70.58
2023-04-26T20:56:56.067Z,70.65
2023-04-26T20:59:24.949Z,70.97
2023-04-26T21:01:52.852Z,70.54
2023-04-26T21:06:45.809Z,72.56
2023-04-26T21:09:12.449Z,72.89
2023-04-26T21:11:38.982Z,74.06
2023-04-26T21:14:06.731Z,73.65
2023-04-26T21:16:33.310Z,73.33
2023-04-26T21:18:59.791Z,74.17
2023-04-26T21:21:28.313Z,73.72
2023-04-26T21:23:55.071Z,73.59
2023-04-26T21:26:21.548Z,73.85
2023-04-26T21:28:48.715Z,73.62
2023-04-26T21:31:15.473Z,73.95
2023-04-26T21:33:42.090Z,73.73
2023-04-26T21:36:08.846Z,73.20
2023-04-26T21:38:35.409Z,73.83
2023-04-26T21:41:01.914Z,74.08
2023-04-26T21:43:28.482Z,74.19
2023-04-26T21:45:56.417Z,74.27
2023-04-26T21:48:22.846Z,74.29
2023-04-26T21:50:49.920Z,74.04
2023-04-26T21:53:16.808Z,74.94
2023-04-26T21:55:43.186Z,75.07
2023-04-26T21:58:09.687Z,75.36
2023-04-26T22:00:36.106Z,75.66
2023-04-26T22:03:02.957Z,76.49
2023-04-26T22:05:29.618Z,75.65
2023-04-26T22:07:56.272Z,75.48
2023-04-26T22:10:22.808Z,75.63
2023-04-26T22:12:49.347Z,75.63
2023-04-26T22:15:16.321Z,75.07
2023-04-26T22:17:43.321Z,75.35
2023-04-26T22:20:10.535Z,75.22
2023-04-26T22:22:37.010Z,75.99
2023-04-26T22:25:03.980Z,76.54
2023-04-26T22:27:31.706Z,76.76
2023-04-26T22:29:58.896Z,76.36
2023-04-26T22:32:28.795Z,76.77
2023-04-26T22:34:55.445Z,77.04
2023-04-26T22:37:21.978Z,77.38
2023-04-26T22:39:49.233Z,78.21
2023-04-26T22:42:16.184Z,77.98
2023-04-26T22:44:42.630Z,78.50
2023-04-26T22:47:09.061Z,78.67
2023-04-26T22:49:35.644Z,79.57
2023-04-26T22:52:09.796Z,79.94
2023-04-26T22:54:43.694Z,79.91
2023-04-26T22:57:10.167Z,80.02
2023-04-26T22:59:36.789Z,80.08
2023-04-26T23:02:03.943Z,80.27
2023-04-26T23:04:30.483Z,79.78
2023-04-26T23:06:57.090Z,80.65
2023-04-26T23:09:23.549Z,80.80
2023-04-26T23:11:49.980Z,81.50
2023-04-26T23:14:17.221Z,81.17
2023-04-26T23:16:44.111Z,81.71
2023-04-26T23:19:11.259Z,81.93
2023-04-26T23:21:38.309Z,82.69
2023-04-26T23:24:05.508Z,82.55
2023-04-26T23:26:32.678Z,82.75
2023-04-26T23:29:00.115Z,83.05
2023-04-26T23:31:26.725Z,83.57
2023-04-26T23:33:53.524Z,83.22
2023-04-26T23:36:20.257Z,83.46
2023-04-26T23:38:46.833Z,83.81
2023-04-26T23:41:13.518Z,84.05
2023-04-26T23:43:40.399Z,84.10
2023-04-26T23:46:07.193Z,84.42
2023-04-26T23:48:33.888Z,84.49
2023-04-26T23:51:00.635Z,85.02
2023-04-26T23:53:27.735Z,84.46
2023-04-26T23:55:54.279Z,84.52
2023-04-26T23:58:20.733Z,84.65
